Time;durP1;ratioP1;P1;durP2;ratioP2;P2;SDS_P1;SDS_P2;PMS_P1;PMS_P2;Temp;Humidity;BMP_temperature;BMP_pressure;BME280_temperature;BME280_humidity;BME280_pressure;Samples;Min_cycle;Max_cycle;Signal;HPM_P1;HPM_P2
2022/05/10 00:00:54;;;;;;;14.40;10.70;;;;;;;;;;5071658;28;20405;-56
2022/05/10 00:03:21;;;;;;;12.17;10.00;;;;;;;;;;5072234;28;20464;-55
2022/05/10 00:05:47;;;;;;;11.30;8.50;;;;;;;;;;5072194;28;20889;-55
2022/05/10 00:08:15;;;;;;;10.40;8.70;;;;;;;;;;5072222;28;20404;-55
2022/05/10 00:10:42;;;;;;;11.00;7.87;;;;;;;;;;5072006;28;20870;-55
2022/05/10 00:13:08;;;;;;;9.43;7.13;;;;;;;;;;5071562;28;20483;-55
2022/05/10 00:15:34;;;;;;;8.97;8.17;;;;;;;;;;5072088;28;20401;-55
2022/05/10 00:18:00;;;;;;;10.97;7.97;;;;;;;;;;5072059;28;20431;-55
2022/05/10 00:20:26;;;;;;;8.50;7.70;;;;;;;;;;5071921;28;20397;-55
2022/05/10 00:22:52;;;;;;;9.30;8.40;;;;;;;;;;5071365;28;20456;-55
2022/05/10 00:25:21;;;;;;;7.53;6.80;;;;;;;;;;5071925;28;20401;-55
2022/05/10 00:27:47;;;;;;;7.30;6.63;;;;;;;;;;5071935;28;20937;-55
2022/05/10 00:30:13;;;;;;;7.00;6.40;;;;;;;;;;5071915;28;20492;-55
2022/05/10 00:32:40;;;;;;;7.73;7.00;;;;;;;;;;5071159;28;20892;-55
2022/05/10 00:35:07;;;;;;;8.83;7.07;;;;;;;;;;5071835;28;20431;-55
2022/05/10 00:37:33;;;;;;;9.60;8.80;;;;;;;;;;5071764;28;21013;-55
2022/05/10 00:39:59;;;;;;;9.10;8.13;;;;;;;;;;5071818;28;20439;-55
2022/05/10 00:42:32;;;;;;;8.40;7.60;;;;;;;;;;5071084;28;20463;-54
2022/05/10 00:45:01;;;;;;;7.33;6.73;;;;;;;;;;5071848;28;20430;-55
2022/05/10 00:47:40;;;;;;;8.00;7.27;;;;;;;;;;5071713;28;20489;-55
2022/05/10 00:50:25;;;;;;;8.47;7.33;;;;;;;;;;5071677;28;20379;-55
2022/05/10 00:52:58;;;;;;;8.87;7.70;;;;;;;;;;5070848;28;20434;-55
2022/05/10 00:55:27;;;;;;;9.80;7.13;;;;;;;;;;5071876;28;20403;-55
2022/05/10 00:58:05;;;;;;;9.27;7.20;;;;;;;;;;5071708;28;20473;-55
2022/05/10 01:00:32;;;;;;;7.23;6.63;;;;;;;;;;5071182;28;20381;-55
2022/05/10 01:03:06;;;;;;;8.23;7.20;;;;;;;;;;5070093;28;20940;-55
2022/05/10 01:05:38;;;;;;;7.90;7.10;;;;;;;;;;5070914;28;20464;-55
2022/05/10 01:08:24;;;;;;;7.40;6.70;;;;;;;;;;5071091;28;20458;-55
2022/05/10 01:10:53;;;;;;;7.50;6.80;;;;;;;;;;5070890;28;20886;-56
2022/05/10 01:13:33;;;;;;;8.13;7.30;;;;;;;;;;5071280;28;20508;-55
2022/05/10 01:16:05;;;;;;;8.83;7.97;;;;;;;;;;5071409;28;20434;-55
2022/05/10 01:18:31;;;;;;;11.50;9.00;;;;;;;;;;5071323;28;20388;-55
2022/05/10 01:21:01;;;;;;;10.73;8.93;;;;;;;;;;5071159;28;20738;-55
2022/05/10 01:23:45;;;;;;;8.20;7.40;;;;;;;;;;5071416;28;20421;-55
2022/05/10 01:26:11;;;;;;;9.20;7.97;;;;;;;;;;5071571;28;20460;-55
2022/05/10 01:28:39;;;;;;;8.63;7.80;;;;;;;;;;5071443;28;20411;-55
2022/05/10 01:31:09;;;;;;;6.87;6.27;;;;;;;;;;5070887;28;20386;-54
2022/05/10 01:33:44;;;;;;;8.13;7.43;;;;;;;;;;5070987;28;20922;-55
2022/05/10 01:36:28;;;;;;;8.40;6.67;;;;;;;;;;5071160;28;20503;-55
2022/05/10 01:38:57;;;;;;;8.80;6.87;;;;;;;;;;5071328;28;20374;-55
2022/05/10 01:41:43;;;;;;;9.40;6.80;;;;;;;;;;5072924;28;20391;-55
2022/05/10 01:44:12;;;;;;;7.40;6.90;;;;;;;;;;5074817;28;20920;-55
2022/05/10 01:46:38;;;;;;;8.00;7.30;;;;;;;;;;5074840;28;20411;-55
2022/05/10 01:49:07;;;;;;;10.60;7.70;;;;;;;;;;5074904;28;20402;-55
2022/05/10 01:51:53;;;;;;;8.80;7.73;;;;;;;;;;5074010;28;20426;-55
2022/05/10 01:54:32;;;;;;;8.60;7.80;;;;;;;;;;5074474;28;20425;-55
2022/05/10 01:56:58;;;;;;;8.37;7.67;;;;;;;;;;5074594;28;20434;-55
2022/05/10 01:59:25;;;;;;;9.10;8.00;;;;;;;;;;5074709;28;20439;-55
2022/05/10 02:01:51;;;;;;;12.17;8.80;;;;;;;;;;5073932;28;20840;-55
2022/05/10 02:04:21;;;;;;;7.73;6.97;;;;;;;;;;5074667;28;20733;-54
2022/05/10 02:06:50;;;;;;;8.93;7.40;;;;;;;;;;5074691;28;20360;-55
2022/05/10 02:09:20;;;;;;;6.80;6.20;;;;;;;;;;5074426;28;20379;-55
2022/05/10 02:12:05;;;;;;;9.03;7.00;;;;;;;;;;5073675;28;20441;-55
2022/05/10 02:14:39;;;;;;;9.23;6.90;;;;;;;;;;5074261;28;20446;-55
2022/05/10 02:17:25;;;;;;;9.43;6.67;;;;;;;;;;5074208;28;20506;-55
2022/05/10 02:19:54;;;;;;;6.70;6.10;;;;;;;;;;5073972;28;20410;-55
2022/05/10 02:22:23;;;;;;;6.07;5.53;;;;;;;;;;5073699;28;20400;-55
2022/05/10 02:24:51;;;;;;;7.53;6.93;;;;;;;;;;5074101;28;20797;-55
2022/05/10 02:27:22;;;;;;;7.00;6.40;;;;;;;;;;5074064;28;20400;-55
2022/05/10 02:29:51;;;;;;;6.63;5.87;;;;;;;;;;5073978;28;20450;-55
2022/05/10 02:35:05;;;;;;;6.40;5.80;;;;;;;;;;5074328;28;20372;-55
2022/05/10 02:37:31;;;;;;;6.70;6.00;;;;;;;;;;5073849;28;20448;-55
2022/05/10 02:39:58;;;;;;;9.57;5.80;;;;;;;;;;5073890;28;20764;-55
2022/05/10 02:42:25;;;;;;;6.87;6.17;;;;;;;;;;5073204;28;20412;-54
2022/05/10 02:44:54;;;;;;;7.00;6.30;;;;;;;;;;5073701;28;20401;-55
2022/05/10 02:47:28;;;;;;;7.40;6.70;;;;;;;;;;5073728;28;20413;-54
2022/05/10 02:49:54;;;;;;;7.37;5.70;;;;;;;;;;5073615;28;20725;-55
2022/05/10 02:52:20;;;;;;;10.67;6.23;;;;;;;;;;5071899;28;20479;-55
2022/05/10 02:54:46;;;;;;;6.93;6.27;;;;;;;;;;5073539;28;20925;-54
2022/05/10 02:57:12;;;;;;;6.40;5.80;;;;;;;;;;5073457;28;20863;-55
2022/05/10 02:59:39;;;;;;;6.33;5.70;;;;;;;;;;5073286;28;20405;-55
2022/05/10 03:02:05;;;;;;;6.60;6.10;;;;;;;;;;5072755;28;20419;-55
2022/05/10 03:04:39;;;;;;;6.00;5.43;;;;;;;;;;5073277;28;20817;-55
2022/05/10 03:07:05;;;;;;;7.83;5.90;;;;;;;;;;5073334;28;20427;-55
2022/05/10 03:09:32;;;;;;;6.43;5.80;;;;;;;;;;5073117;28;20395;-55
2022/05/10 03:11:58;;;;;;;6.97;6.27;;;;;;;;;;5072604;28;20399;-55
2022/05/10 03:14:24;;;;;;;5.97;5.37;;;;;;;;;;5073077;28;20424;-55
2022/05/10 03:16:50;;;;;;;7.03;6.40;;;;;;;;;;5072999;28;20500;-55
2022/05/10 03:19:19;;;;;;;6.20;5.70;;;;;;;;;;5072972;28;20471;-55
2022/05/10 03:21:45;;;;;;;6.00;4.80;;;;;;;;;;5072433;28;20414;-55
2022/05/10 03:24:11;;;;;;;7.10;5.43;;;;;;;;;;5072909;28;20449;-54
2022/05/10 03:26:37;;;;;;;6.07;5.50;;;;;;;;;;5072896;28;20408;-55
2022/05/10 03:29:04;;;;;;;6.40;5.80;;;;;;;;;;5072895;28;20748;-55
2022/05/10 03:31:30;;;;;;;5.70;5.03;;;;;;;;;;5072164;28;20387;-55
2022/05/10 03:36:41;;;;;;;6.43;5.30;;;;;;;;;;5072665;28;20785;-55
2022/05/10 03:39:08;;;;;;;6.10;5.50;;;;;;;;;;5072592;28;20369;-55
2022/05/10 03:41:34;;;;;;;6.13;5.63;;;;;;;;;;5071989;28;20434;-55
2022/05/10 03:44:00;;;;;;;6.20;5.70;;;;;;;;;;5072501;28;20401;-55
2022/05/10 03:46:26;;;;;;;7.37;6.70;;;;;;;;;;5072595;28;20410;-55
2022/05/10 03:48:54;;;;;;;6.07;5.53;;;;;;;;;;5072424;28;20380;-55
2022/05/10 03:51:20;;;;;;;7.23;6.47;;;;;;;;;;5071648;28;20824;-55
2022/05/10 03:53:46;;;;;;;6.67;5.93;;;;;;;;;;5072409;28;20431;-55
2022/05/10 03:56:12;;;;;;;8.20;6.70;;;;;;;;;;5072417;28;20993;-54
2022/05/10 03:58:38;;;;;;;12.23;6.17;;;;;;;;;;5072310;28;20766;-54
2022/05/10 04:01:07;;;;;;;7.33;6.73;;;;;;;;;;5071824;28;20840;-54
2022/05/10 04:03:35;;;;;;;7.47;6.00;;;;;;;;;;5072107;28;20397;-54
2022/05/10 04:06:01;;;;;;;6.57;6.00;;;;;;;;;;5072187;28;20415;-54
2022/05/10 04:08:27;;;;;;;10.97;7.00;;;;;;;;;;5072059;28;20410;-55
2022/05/10 04:10:53;;;;;;;8.10;7.50;;;;;;;;;;5071533;28;20373;-55
2022/05/10 04:13:19;;;;;;;7.20;6.57;;;;;;;;;;5072087;28;20955;-54
2022/05/10 04:15:45;;;;;;;6.77;6.13;;;;;;;;;;5072158;28;20406;-54
2022/05/10 04:18:11;;;;;;;8.10;7.10;;;;;;;;;;5071997;28;20428;-55
2022/05/10 04:20:37;;;;;;;8.30;6.53;;;;;;;;;;5072022;28;20399;-55
2022/05/10 04:23:03;;;;;;;6.30;5.80;;;;;;;;;;5071346;28;20875;-55
2022/05/10 04:25:29;;;;;;;6.50;5.87;;;;;;;;;;5070764;28;20405;-55
2022/05/10 04:27:56;;;;;;;8.73;6.40;;;;;;;;;;5072139;28;20379;-55
2022/05/10 04:30:22;;;;;;;10.13;6.03;;;;;;;;;;5071851;28;20893;-54
2022/05/10 04:32:50;;;;;;;6.37;5.77;;;;;;;;;;5071275;28;20404;-54
2022/05/10 04:35:16;;;;;;;8.23;7.37;;;;;;;;;;5071904;28;20417;-54
2022/05/10 04:37:42;;;;;;;7.57;6.87;;;;;;;;;;5071731;28;20488;-55
2022/05/10 04:42:53;;;;;;;10.30;7.00;;;;;;;;;;5071447;28;20425;-55
2022/05/10 04:45:20;;;;;;;11.93;7.20;;;;;;;;;;5071856;28;20372;-54
2022/05/10 04:47:47;;;;;;;11.33;7.10;;;;;;;;;;5072332;28;20383;-55
2022/05/10 04:50:13;;;;;;;7.17;6.60;;;;;;;;;;5071678;28;20411;-54
2022/05/10 04:52:40;;;;;;;8.73;7.10;;;;;;;;;;5071004;28;20889;-55
2022/05/10 04:55:09;;;;;;;7.63;6.93;;;;;;;;;;5071821;28;20381;-55
2022/05/10 04:57:36;;;;;;;15.90;6.80;;;;;;;;;;5071624;28;20926;-56
2022/05/10 05:00:03;;;;;;;12.30;6.83;;;;;;;;;;5071583;28;20409;-55
2022/05/10 05:02:29;;;;;;;12.40;6.57;;;;;;;;;;5070872;28;20384;-56
2022/05/10 05:04:55;;;;;;;7.37;6.57;;;;;;;;;;5071653;28;20413;-55
2022/05/10 05:07:21;;;;;;;7.97;6.50;;;;;;;;;;5071531;28;20449;-55
2022/05/10 05:09:47;;;;;;;11.77;6.33;;;;;;;;;;5071665;28;20388;-54
2022/05/10 05:12:13;;;;;;;7.63;5.90;;;;;;;;;;5070896;28;20401;-55
2022/05/10 05:14:39;;;;;;;6.33;5.83;;;;;;;;;;5071503;28;20988;-55
2022/05/10 05:17:05;;;;;;;6.87;6.17;;;;;;;;;;5074873;28;20505;-56
2022/05/10 05:19:31;;;;;;;6.83;6.13;;;;;;;;;;5075358;28;20403;-55
2022/05/10 05:21:57;;;;;;;9.60;6.47;;;;;;;;;;5074721;28;20459;-55
2022/05/10 05:24:23;;;;;;;8.50;7.13;;;;;;;;;;5075199;28;20422;-55
2022/05/10 05:26:52;;;;;;;11.90;6.13;;;;;;;;;;5075215;28;20510;-55
2022/05/10 05:29:19;;;;;;;10.00;6.27;;;;;;;;;;5075261;28;20429;-56
2022/05/10 05:31:45;;;;;;;13.37;6.03;;;;;;;;;;5074444;28;20501;-54
2022/05/10 05:34:11;;;;;;;13.60;6.40;;;;;;;;;;5075257;28;20429;-55
2022/05/10 05:36:37;;;;;;;13.67;6.70;;;;;;;;;;5075202;28;20797;-55
2022/05/10 05:39:03;;;;;;;7.13;6.43;;;;;;;;;;5074981;28;20760;-55
2022/05/10 05:41:30;;;;;;;8.10;6.10;;;;;;;;;;5074368;28;20401;-56
2022/05/10 05:43:56;;;;;;;10.53;6.00;;;;;;;;;;5075007;28;21181;-55
2022/05/10 05:46:22;;;;;;;7.93;5.70;;;;;;;;;;5074937;28;20379;-54
2022/05/10 05:48:48;;;;;;;9.73;7.00;;;;;;;;;;5074958;28;20378;-55
2022/05/10 05:51:14;;;;;;;9.30;6.77;;;;;;;;;;5074042;28;20412;-55
2022/05/10 05:53:40;;;;;;;11.07;5.67;;;;;;;;;;5074766;28;20499;-55
2022/05/10 05:56:08;;;;;;;6.20;5.80;;;;;;;;;;5074801;28;20458;-56
2022/05/10 05:58:35;;;;;;;7.50;6.30;;;;;;;;;;5074584;28;20495;-55
2022/05/10 06:01:01;;;;;;;6.27;5.67;;;;;;;;;;5072891;28;20390;-55
2022/05/10 06:03:27;;;;;;;6.13;5.63;;;;;;;;;;5073840;28;20439;-55
2022/05/10 06:05:54;;;;;;;6.70;6.10;;;;;;;;;;5074542;28;20494;-55
2022/05/10 06:08:21;;;;;;;8.03;6.53;;;;;;;;;;5074228;28;20461;-55
2022/05/10 06:10:50;;;;;;;7.07;6.57;;;;;;;;;;5073563;28;20945;-55
2022/05/10 06:13:18;;;;;;;8.97;7.53;;;;;;;;;;5074058;28;20476;-56
2022/05/10 06:15:44;;;;;;;7.03;6.37;;;;;;;;;;5072993;28;20424;-55
2022/05/10 06:18:10;;;;;;;6.97;6.37;;;;;;;;;;5074373;28;20832;-55
2022/05/10 06:20:37;;;;;;;8.37;7.17;;;;;;;;;;5073646;28;20416;-55
2022/05/10 06:23:04;;;;;;;7.07;6.33;;;;;;;;;;5073247;28;20974;-55
2022/05/10 06:25:31;;;;;;;6.87;6.27;;;;;;;;;;5073337;28;20415;-56
2022/05/10 06:27:58;;;;;;;10.17;6.77;;;;;;;;;;5073648;28;20423;-55
2022/05/10 06:30:26;;;;;;;10.23;7.00;;;;;;;;;;5073963;28;20488;-56
2022/05/10 06:32:52;;;;;;;8.20;5.77;;;;;;;;;;5073037;28;20429;-56
2022/05/10 06:35:18;;;;;;;6.97;6.37;;;;;;;;;;5073887;28;20838;-56
2022/05/10 06:40:29;;;;;;;7.00;6.40;;;;;;;;;;5073577;28;20775;-56
2022/05/10 06:42:58;;;;;;;7.40;6.37;;;;;;;;;;5073212;28;20904;-56
2022/05/10 06:45:24;;;;;;;7.07;6.47;;;;;;;;;;5073632;28;20877;-56
2022/05/10 06:47:51;;;;;;;7.57;6.30;;;;;;;;;;5073786;28;20405;-55
2022/05/10 06:50:19;;;;;;;6.83;6.10;;;;;;;;;;5073628;28;20497;-55
2022/05/10 06:52:45;;;;;;;8.80;7.00;;;;;;;;;;5072735;28;20453;-56
2022/05/10 06:55:11;;;;;;;7.40;6.57;;;;;;;;;;5073490;28;20931;-56
2022/05/10 06:57:37;;;;;;;9.17;6.53;;;;;;;;;;5073112;28;20493;-55
2022/05/10 07:00:04;;;;;;;9.73;8.33;;;;;;;;;;5071386;28;20413;-55
2022/05/10 07:02:30;;;;;;;8.10;6.67;;;;;;;;;;5072077;28;20778;-57
2022/05/10 07:04:57;;;;;;;7.47;6.87;;;;;;;;;;5072899;28;20472;-56
2022/05/10 07:07:23;;;;;;;8.20;7.30;;;;;;;;;;5072812;28;20405;-55
2022/05/10 07:09:49;;;;;;;6.37;5.77;;;;;;;;;;5072558;28;20450;-55
2022/05/10 07:12:16;;;;;;;6.73;6.13;;;;;;;;;;5072108;28;20952;-55
2022/05/10 07:14:45;;;;;;;8.30;7.60;;;;;;;;;;5066815;28;20467;-55
2022/05/10 07:17:11;;;;;;;7.10;6.37;;;;;;;;;;5058080;28;20452;-55
2022/05/10 07:19:37;;;;;;;12.30;5.90;;;;;;;;;;5052596;28;20406;-55
2022/05/10 07:22:03;;;;;;;7.00;6.40;;;;;;;;;;5065983;28;20411;-56
2022/05/10 07:24:29;;;;;;;8.27;6.90;;;;;;;;;;5071053;28;20481;-56
2022/05/10 07:26:55;;;;;;;7.20;6.47;;;;;;;;;;5072223;28;20442;-55
2022/05/10 07:29:23;;;;;;;6.60;6.03;;;;;;;;;;5072713;28;20407;-55
2022/05/10 07:31:49;;;;;;;11.70;7.80;;;;;;;;;;5072231;28;20490;-55
2022/05/10 07:34:16;;;;;;;8.03;6.93;;;;;;;;;;5072731;28;20448;-55
2022/05/10 07:36:42;;;;;;;5.57;5.17;;;;;;;;;;5072495;28;20586;-55
2022/05/10 07:39:10;;;;;;;8.80;6.30;;;;;;;;;;5072105;28;20748;-56
2022/05/10 07:41:36;;;;;;;7.63;6.40;;;;;;;;;;5071910;28;20436;-54
2022/05/10 07:44:05;;;;;;;7.00;6.03;;;;;;;;;;5072299;28;20907;-56
2022/05/10 07:46:31;;;;;;;6.00;5.43;;;;;;;;;;5072573;28;20499;-56
2022/05/10 07:48:57;;;;;;;5.43;4.97;;;;;;;;;;5072496;28;20499;-56
2022/05/10 07:51:23;;;;;;;5.57;5.07;;;;;;;;;;5071704;28;20396;-55
2022/05/10 07:53:49;;;;;;;6.50;5.90;;;;;;;;;;5072598;28;20431;-55
2022/05/10 07:56:16;;;;;;;6.63;5.97;;;;;;;;;;5072380;28;20458;-56
2022/05/10 07:58:42;;;;;;;8.10;7.30;;;;;;;;;;5072269;28;20760;-55
2022/05/10 08:01:08;;;;;;;5.03;4.63;;;;;;;;;;5071621;28;20401;-55
2022/05/10 08:03:34;;;;;;;7.80;5.80;;;;;;;;;;5072152;28;20423;-56
2022/05/10 08:06:01;;;;;;;5.70;5.10;;;;;;;;;;5072086;28;20408;-55
2022/05/10 08:08:30;;;;;;;5.60;5.00;;;;;;;;;;5072277;28;20453;-56
2022/05/10 08:10:58;;;;;;;4.63;4.23;;;;;;;;;;5071436;28;20396;-56
2022/05/10 08:13:27;;;;;;;5.10;4.60;;;;;;;;;;5072035;28;20416;-56
2022/05/10 08:15:57;;;;;;;8.80;4.30;;;;;;;;;;5072003;28;20403;-56
2022/05/10 08:18:23;;;;;;;6.17;5.47;;;;;;;;;;5071790;28;20408;-56
2022/05/10 08:20:51;;;;;;;4.20;3.90;;;;;;;;;;5071207;28;20396;-56
2022/05/10 08:23:21;;;;;;;4.40;4.00;;;;;;;;;;5064756;28;20570;-55
2022/05/10 08:25:48;;;;;;;4.30;4.00;;;;;;;;;;5051874;28;20394;-56
2022/05/10 08:28:14;;;;;;;6.10;3.93;;;;;;;;;;5051769;28;20413;-55
2022/05/10 08:30:44;;;;;;;6.03;4.30;;;;;;;;;;5051554;28;20406;-57
2022/05/10 08:33:10;;;;;;;4.90;4.40;;;;;;;;;;5051427;28;20966;-56
2022/05/10 08:35:39;;;;;;;4.83;4.33;;;;;;;;;;5051824;28;20432;-55
2022/05/10 08:38:06;;;;;;;4.40;3.90;;;;;;;;;;5051683;28;20468;-55
2022/05/10 08:40:34;;;;;;;4.90;4.50;;;;;;;;;;5051527;28;20405;-56
2022/05/10 08:43:02;;;;;;;6.23;5.30;;;;;;;;;;5050894;28;20504;-55
2022/05/10 08:45:28;;;;;;;5.80;4.90;;;;;;;;;;5051571;28;20870;-56
2022/05/10 08:47:55;;;;;;;4.90;4.43;;;;;;;;;;5051580;28;20455;-56
2022/05/10 08:50:21;;;;;;;4.50;4.20;;;;;;;;;;5052238;28;20840;-56
2022/05/10 08:52:51;;;;;;;4.67;4.23;;;;;;;;;;5055205;28;20441;-56
2022/05/10 08:55:21;;;;;;;4.17;3.87;;;;;;;;;;5055638;28;20464;-57
2022/05/10 08:57:53;;;;;;;4.57;4.27;;;;;;;;;;5055518;28;20449;-57
2022/05/10 09:00:19;;;;;;;11.63;5.83;;;;;;;;;;5055570;28;20766;-57
2022/05/10 09:02:51;;;;;;;3.97;3.67;;;;;;;;;;5054886;28;20893;-56
2022/05/10 09:05:20;;;;;;;4.43;4.03;;;;;;;;;;5055623;28;20767;-56
2022/05/10 09:07:55;;;;;;;3.93;3.63;;;;;;;;;;5055681;28;20447;-56
2022/05/10 09:10:30;;;;;;;4.07;3.77;;;;;;;;;;5055386;28;20407;-56
2022/05/10 09:13:04;;;;;;;10.53;3.83;;;;;;;;;;5054518;28;20427;-57
2022/05/10 09:15:34;;;;;;;3.83;3.63;;;;;;;;;;5075379;28;20401;-56
2022/05/10 09:18:05;;;;;;;4.10;3.70;;;;;;;;;;5075218;28;20451;-57
2022/05/10 09:20:32;;;;;;;4.13;3.83;;;;;;;;;;5075142;28;20491;-55
2022/05/10 09:23:03;;;;;;;17.73;4.30;;;;;;;;;;5074241;28;20729;-56
2022/05/10 09:25:45;;;;;;;3.83;3.53;;;;;;;;;;5075084;28;20396;-56
2022/05/10 09:28:35;;;;;;;4.60;3.60;;;;;;;;;;5075472;28;20400;-56
2022/05/10 09:36:53;;;;;;;4.50;4.07;;;;;;;;;;5054997;28;20456;-57
2022/05/10 09:39:21;;;;;;;4.10;3.80;;;;;;;;;;5054824;28;20483;-56
2022/05/10 09:41:52;;;;;;;4.73;4.33;;;;;;;;;;5053886;28;20408;-56
2022/05/10 09:44:27;;;;;;;4.37;3.97;;;;;;;;;;5055251;28;20425;-57
2022/05/10 09:47:11;;;;;;;6.83;4.20;;;;;;;;;;5054848;28;20768;-57
2022/05/10 09:49:38;;;;;;;6.73;4.47;;;;;;;;;;5065835;28;20416;-57
2022/05/10 09:52:05;;;;;;;4.17;3.87;;;;;;;;;;5073797;28;20420;-57
2022/05/10 09:54:37;;;;;;;4.53;4.13;;;;;;;;;;5074672;28;20763;-58
2022/05/10 09:57:04;;;;;;;3.73;3.43;;;;;;;;;;5074559;28;20470;-57
2022/05/10 09:59:32;;;;;;;3.97;3.67;;;;;;;;;;5074410;28;20404;-57
2022/05/10 10:02:01;;;;;;;4.23;3.30;;;;;;;;;;5073133;28;20435;-57
2022/05/10 10:04:31;;;;;;;5.30;3.37;;;;;;;;;;5054486;28;20456;-57
2022/05/10 10:07:09;;;;;;;4.47;3.30;;;;;;;;;;5054793;28;20600;-55
2022/05/10 10:09:39;;;;;;;3.87;3.57;;;;;;;;;;5054261;28;20455;-56
2022/05/10 10:12:06;;;;;;;4.27;3.87;;;;;;;;;;5053919;28;20476;-56
2022/05/10 10:14:34;;;;;;;3.80;3.47;;;;;;;;;;5054352;28;20426;-56
2022/05/10 10:17:02;;;;;;;3.77;3.47;;;;;;;;;;5054517;28;20500;-55
2022/05/10 10:19:40;;;;;;;6.40;3.57;;;;;;;;;;5054685;28;20397;-56
2022/05/10 10:22:15;;;;;;;3.40;3.20;;;;;;;;;;5069766;28;20473;-55
2022/05/10 10:24:56;;;;;;;4.30;3.60;;;;;;;;;;5074038;28;20477;-55
2022/05/10 10:27:32;;;;;;;7.93;3.57;;;;;;;;;;5073168;28;20772;-56
2022/05/10 10:30:03;;;;;;;4.30;3.50;;;;;;;;;;5073668;28;20776;-57
2022/05/10 10:32:47;;;;;;;5.40;3.90;;;;;;;;;;5073346;28;20432;-57
2022/05/10 10:35:26;;;;;;;8.10;4.30;;;;;;;;;;5073733;28;20493;-57
2022/05/10 10:37:55;;;;;;;4.03;3.63;;;;;;;;;;5073597;28;20941;-56
2022/05/10 10:40:39;;;;;;;4.17;3.87;;;;;;;;;;5073307;28;20427;-56
2022/05/10 10:43:14;;;;;;;4.27;3.20;;;;;;;;;;5072464;28;20428;-56
2022/05/10 10:45:52;;;;;;;5.90;3.80;;;;;;;;;;5073589;28;20772;-56
2022/05/10 10:48:27;;;;;;;4.70;4.40;;;;;;;;;;5073010;28;20440;-56
2022/05/10 10:50:53;;;;;;;4.50;4.00;;;;;;;;;;5072601;28;20509;-57
2022/05/10 10:53:22;;;;;;;6.20;4.03;;;;;;;;;;5072722;28;20462;-57
2022/05/10 10:56:06;;;;;;;8.70;4.37;;;;;;;;;;5062878;28;20424;-57
2022/05/10 10:58:51;;;;;;;12.07;5.23;;;;;;;;;;5073357;28;20514;-56
2022/05/10 11:01:36;;;;;;;6.60;4.10;;;;;;;;;;5072735;28;20411;-57
2022/05/10 11:04:14;;;;;;;4.57;4.17;;;;;;;;;;5070489;28;20474;-57
2022/05/10 11:06:46;;;;;;;5.20;4.70;;;;;;;;;;5072948;28;20929;-56
2022/05/10 11:09:36;;;;;;;6.23;4.30;;;;;;;;;;5072396;28;20417;-57
2022/05/10 11:12:03;;;;;;;4.53;4.13;;;;;;;;;;5062051;28;20444;-57
2022/05/10 11:14:38;;;;;;;4.77;4.43;;;;;;;;;;5071694;28;20436;-57
2022/05/10 11:17:19;;;;;;;5.77;4.33;;;;;;;;;;5071179;28;20508;-58
2022/05/10 11:19:54;;;;;;;5.17;4.77;;;;;;;;;;5057985;28;20466;-57
2022/05/10 11:22:39;;;;;;;5.50;5.00;;;;;;;;;;5072071;28;20421;-57
2022/05/10 11:25:08;;;;;;;5.53;4.60;;;;;;;;;;5072496;28;20440;-56
2022/05/10 11:27:47;;;;;;;4.40;4.00;;;;;;;;;;5072679;28;20420;-57
2022/05/10 11:30:19;;;;;;;4.90;4.40;;;;;;;;;;5072337;28;20412;-57
2022/05/10 11:32:48;;;;;;;4.40;4.10;;;;;;;;;;5071780;28;20413;-57
2022/05/10 11:35:33;;;;;;;6.33;4.17;;;;;;;;;;5072439;28;20830;-57
2022/05/10 11:38:09;;;;;;;4.67;4.27;;;;;;;;;;5072103;28;20471;-57
2022/05/10 11:41:02;;;;;;;5.80;4.20;;;;;;;;;;5072299;28;20420;-57
2022/05/10 11:43:47;;;;;;;9.60;4.33;;;;;;;;;;5049576;28;20450;-57
2022/05/10 11:46:32;;;;;;;4.63;4.10;;;;;;;;;;5071732;28;20412;-56
2022/05/10 11:49:01;;;;;;;4.37;3.97;;;;;;;;;;5072369;28;20435;-57
2022/05/10 11:51:41;;;;;;;4.47;4.17;;;;;;;;;;5070921;28;20423;-57
2022/05/10 11:54:26;;;;;;;7.50;3.97;;;;;;;;;;5072035;28;20440;-57
2022/05/10 11:56:53;;;;;;;4.33;3.93;;;;;;;;;;5071597;28;20444;-57
2022/05/10 11:59:36;;;;;;;4.93;3.87;;;;;;;;;;5071912;28;20792;-57
2022/05/10 12:02:03;;;;;;;3.97;3.57;;;;;;;;;;5071389;28;20900;-57
2022/05/10 12:04:36;;;;;;;4.20;3.90;;;;;;;;;;5071645;28;20445;-57
2022/05/10 12:07:23;;;;;;;4.53;4.20;;;;;;;;;;5071686;28;20408;-57
2022/05/10 12:09:55;;;;;;;3.37;3.07;;;;;;;;;;5071700;28;20400;-57
2022/05/10 12:12:33;;;;;;;4.20;3.60;;;;;;;;;;5071263;28;20528;-56
2022/05/10 12:21:20;;;;;;;3.87;3.57;;;;;;;;;;5071826;28;20438;-57
2022/05/10 12:24:04;;;;;;;5.50;3.70;;;;;;;;;;5057139;28;20561;-57
2022/05/10 12:26:44;;;;;;;16.37;4.00;;;;;;;;;;5066490;28;20761;-57
2022/05/10 12:29:38;;;;;;;5.00;3.40;;;;;;;;;;5071532;28;20420;-57
2022/05/10 12:32:04;;;;;;;3.03;2.83;;;;;;;;;;5071083;28;20414;-57
2022/05/10 12:34:42;;;;;;;3.57;3.27;;;;;;;;;;5071355;28;20432;-57
2022/05/10 12:37:29;;;;;;;5.33;2.80;;;;;;;;;;5071335;28;20983;-57
2022/05/10 12:39:55;;;;;;;4.23;3.00;;;;;;;;;;5067401;28;20416;-57
2022/05/10 12:42:27;;;;;;;3.77;3.00;;;;;;;;;;5071121;28;20404;-57
2022/05/10 12:45:12;;;;;;;5.90;2.70;;;;;;;;;;5071683;28;20261;-56
2022/05/10 12:47:56;;;;;;;4.43;3.07;;;;;;;;;;5071331;28;20469;-56
2022/05/10 12:50:42;;;;;;;3.40;3.10;;;;;;;;;;5071011;28;20907;-55
2022/05/10 12:53:31;;;;;;;3.70;3.40;;;;;;;;;;5070835;28;20989;-57
2022/05/10 12:56:13;;;;;;;4.40;4.10;;;;;;;;;;5071285;28;20511;-56
2022/05/10 12:58:42;;;;;;;3.93;3.53;;;;;;;;;;5071307;28;20413;-58
2022/05/10 13:01:10;;;;;;;3.50;3.30;;;;;;;;;;5070556;28;20405;-57
2022/05/10 13:03:45;;;;;;;10.70;3.43;;;;;;;;;;5067933;28;20448;-57
2022/05/10 13:06:18;;;;;;;5.47;3.30;;;;;;;;;;5071228;28;20908;-57
2022/05/10 13:08:50;;;;;;;5.80;3.60;;;;;;;;;;5069588;28;20491;-58
2022/05/10 13:11:16;;;;;;;5.80;4.00;;;;;;;;;;5070708;28;20408;-57
2022/05/10 13:13:44;;;;;;;4.27;3.30;;;;;;;;;;5071131;28;20416;-58
2022/05/10 13:16:14;;;;;;;10.30;4.00;;;;;;;;;;5070686;28;20773;-56
2022/05/10 13:18:42;;;;;;;3.73;3.43;;;;;;;;;;5070937;28;20424;-56
2022/05/10 13:21:08;;;;;;;4.47;3.20;;;;;;;;;;5069264;28;20424;-56
2022/05/10 13:23:35;;;;;;;7.60;3.90;;;;;;;;;;5069907;28;20436;-57
2022/05/10 13:26:23;;;;;;;4.80;3.93;;;;;;;;;;5071083;28;20500;-57
2022/05/10 13:28:54;;;;;;;3.83;3.53;;;;;;;;;;5070397;28;20955;-56
2022/05/10 13:31:22;;;;;;;4.07;3.10;;;;;;;;;;5070293;28;20469;-56
2022/05/10 13:33:49;;;;;;;4.00;3.70;;;;;;;;;;5070989;28;20447;-56
2022/05/10 13:36:18;;;;;;;6.70;3.20;;;;;;;;;;5071547;28;20587;-56
2022/05/10 13:38:44;;;;;;;4.10;3.70;;;;;;;;;;5074557;28;20417;-58
2022/05/10 13:41:12;;;;;;;6.43;3.90;;;;;;;;;;5074011;28;20819;-57
2022/05/10 13:43:45;;;;;;;3.77;3.23;;;;;;;;;;5074050;28;20940;-57
2022/05/10 13:46:23;;;;;;;4.87;4.07;;;;;;;;;;5074615;28;20412;-57
2022/05/10 13:49:00;;;;;;;6.10;3.83;;;;;;;;;;5071501;28;20427;-56
2022/05/10 13:51:42;;;;;;;5.30;4.83;;;;;;;;;;5073147;28;20908;-56
2022/05/10 13:54:09;;;;;;;6.93;4.00;;;;;;;;;;5074230;28;20436;-57
2022/05/10 13:56:39;;;;;;;17.93;4.20;;;;;;;;;;5074197;28;20543;-56
2022/05/10 13:59:30;;;;;;;4.07;3.77;;;;;;;;;;5074132;28;20995;-56
2022/05/10 14:01:56;;;;;;;3.97;3.53;;;;;;;;;;5071674;28;20754;-56
2022/05/10 14:04:22;;;;;;;4.60;3.80;;;;;;;;;;5074033;28;20447;-56
2022/05/10 14:06:48;;;;;;;3.97;3.60;;;;;;;;;;5074386;28;20888;-57
2022/05/10 14:09:17;;;;;;;5.17;4.37;;;;;;;;;;5074528;28;20401;-57
2022/05/10 14:11:44;;;;;;;5.20;4.53;;;;;;;;;;5074348;28;20503;-57
2022/05/10 14:14:14;;;;;;;8.93;4.20;;;;;;;;;;5074495;28;20803;-56
2022/05/10 14:16:42;;;;;;;6.87;4.20;;;;;;;;;;5073756;28;20812;-56
2022/05/10 14:19:21;;;;;;;6.13;5.03;;;;;;;;;;5073652;28;20412;-56
2022/05/10 14:21:48;;;;;;;4.43;4.03;;;;;;;;;;5073093;28;20412;-57
2022/05/10 14:24:15;;;;;;;4.47;4.13;;;;;;;;;;5073891;28;20482;-56
2022/05/10 14:26:47;;;;;;;4.67;4.17;;;;;;;;;;5073928;28;20419;-56
2022/05/10 14:29:20;;;;;;;6.80;3.80;;;;;;;;;;5073601;28;20469;-56
2022/05/10 14:32:15;;;;;;;5.43;3.97;;;;;;;;;;5072627;28;20420;-56
2022/05/10 14:34:48;;;;;;;4.53;4.10;;;;;;;;;;5068106;28;20833;-57
2022/05/10 14:37:33;;;;;;;4.90;4.23;;;;;;;;;;5073648;28;20455;-57
2022/05/10 14:40:32;;;;;;;9.93;5.07;;;;;;;;;;5073209;28;20914;-57
2022/05/10 14:43:04;;;;;;;9.87;7.13;;;;;;;;;;5048649;28;20933;-56
2022/05/10 14:45:36;;;;;;;8.30;4.10;;;;;;;;;;5055345;28;20409;-57
2022/05/10 14:48:18;;;;;;;10.90;8.20;;;;;;;;;;5073276;28;20415;-58
2022/05/10 14:50:51;;;;;;;5.17;4.77;;;;;;;;;;5073367;28;20816;-58
2022/05/10 14:53:46;;;;;;;7.30;4.67;;;;;;;;;;5074038;28;20818;-57
2022/05/10 14:56:15;;;;;;;6.90;4.70;;;;;;;;;;5068048;28;20892;-57
2022/05/10 14:58:44;;;;;;;4.43;4.03;;;;;;;;;;5072675;28;20465;-57
2022/05/10 15:01:14;;;;;;;11.13;6.70;;;;;;;;;;5072674;28;20473;-55
2022/05/10 15:03:40;;;;;;;4.40;3.80;;;;;;;;;;5072888;28;20428;-57
2022/05/10 15:06:08;;;;;;;4.60;4.20;;;;;;;;;;5073802;28;20790;-57
2022/05/10 15:08:34;;;;;;;5.37;4.87;;;;;;;;;;5073757;28;20392;-57
2022/05/10 15:11:00;;;;;;;7.87;5.13;;;;;;;;;;5072670;28;20396;-56
2022/05/10 15:13:27;;;;;;;4.73;4.07;;;;;;;;;;5073067;28;20416;-57
2022/05/10 15:15:55;;;;;;;3.90;3.60;;;;;;;;;;5073059;28;20392;-58
2022/05/10 15:21:17;;;;;;;7.87;5.30;;;;;;;;;;5065647;28;20407;-57
2022/05/10 15:23:43;;;;;;;6.67;3.73;;;;;;;;;;5054911;28;20439;-57
2022/05/10 15:26:12;;;;;;;4.80;4.40;;;;;;;;;;5052856;28;20762;-57